createdAt,value
2022-08-05T00:02:27.510Z,25.22
2022-08-05T00:04:56.171Z,25.12
2022-08-05T00:07:59.023Z,25.27
2022-08-05T00:10:10.359Z,25.31
2022-08-05T00:12:55.808Z,25.22
2022-08-05T00:15:56.229Z,25.02
2022-08-05T00:18:10.092Z,25.18
2022-08-05T00:20:48.950Z,25.01
2022-08-05T00:23:16.013Z,24.96
2022-08-05T00:25:45.599Z,24.96
2022-08-05T00:28:13.422Z,24.97
2022-08-05T00:30:41.065Z,24.93
2022-08-05T00:34:41.971Z,24.95
2022-08-05T00:36:15.977Z,24.79
2022-08-05T00:38:44.787Z,24.83
2022-08-05T00:41:12.086Z,24.82
2022-08-05T00:43:47.008Z,24.75
2022-08-05T00:46:16.698Z,24.67
2022-08-05T00:48:50.874Z,24.71
2022-08-05T00:51:51.066Z,24.70
2022-08-05T00:54:06.564Z,24.58
2022-08-05T00:56:33.527Z,24.56
2022-08-05T00:59:00.460Z,24.61
2022-08-05T01:01:42.566Z,24.57
2022-08-05T01:04:15.842Z,24.55
2022-08-05T01:06:43.653Z,24.43
2022-08-05T01:09:10.616Z,24.31
2022-08-05T01:11:39.617Z,24.27
2022-08-05T01:14:27.773Z,24.13
2022-08-05T01:17:14.042Z,24.06
2022-08-05T01:20:01.823Z,24.09
2022-08-05T01:22:31.742Z,24.03
2022-08-05T01:25:07.756Z,24.00
2022-08-05T01:27:40.984Z,23.98
2022-08-05T01:30:34.340Z,23.87
2022-08-05T01:33:06.251Z,23.75
2022-08-05T01:35:51.176Z,23.62
2022-08-05T01:38:27.218Z,23.47
2022-08-05T01:40:59.811Z,23.35
2022-08-05T01:43:29.403Z,23.09
2022-08-05T01:45:57.785Z,22.97
2022-08-05T01:48:26.068Z,22.90
2022-08-05T01:50:55.456Z,22.84
2022-08-05T01:53:54.928Z,22.78
2022-08-05T01:56:13.263Z,22.76
2022-08-05T01:59:01.004Z,22.70
2022-08-05T02:01:28.617Z,22.75
2022-08-05T02:04:05.420Z,22.76
2022-08-05T02:06:38.393Z,22.82
2022-08-05T02:09:06.372Z,22.78
2022-08-05T02:11:42.330Z,22.86
2022-08-05T02:14:17.541Z,22.83
2022-08-05T02:16:52.922Z,22.67
2022-08-05T02:19:28.892Z,22.52
2022-08-05T02:22:25.957Z,22.47
2022-08-05T02:25:00.062Z,22.37
2022-08-05T02:27:30.265Z,22.23
2022-08-05T02:30:16.618Z,22.37
2022-08-05T02:32:48.105Z,22.30
2022-08-05T02:35:18.957Z,22.23
2022-08-05T02:37:54.062Z,22.26
2022-08-05T02:40:21.890Z,22.20
2022-08-05T02:42:54.042Z,22.10
2022-08-05T02:45:24.070Z,22.00
2022-08-05T02:48:06.958Z,22.02
2022-08-05T02:50:44.044Z,21.98
2022-08-05T02:53:18.713Z,21.84
2022-08-05T02:55:54.746Z,22.02
2022-08-05T02:58:27.287Z,21.95
2022-08-05T03:00:56.788Z,21.82
2022-08-05T03:03:23.975Z,21.80
2022-08-05T03:06:55.285Z,21.68
2022-08-05T03:08:42.458Z,21.59
2022-08-05T03:11:54.642Z,21.60
2022-08-05T03:14:08.053Z,21.53
2022-08-05T03:16:35.848Z,21.48
2022-08-05T03:19:06.492Z,21.28
2022-08-05T03:21:41.535Z,21.30
2022-08-05T03:24:16.904Z,21.30
2022-08-05T03:26:43.948Z,21.19
2022-08-05T03:29:17.339Z,21.15
2022-08-05T03:31:57.394Z,21.09
2022-08-05T03:34:28.070Z,21.11
2022-08-05T03:36:55.825Z,21.23
2022-08-05T03:39:26.774Z,21.13
2022-08-05T03:41:56.299Z,21.11
2022-08-05T03:44:24.247Z,21.10
2022-08-05T03:46:51.283Z,21.01
2022-08-05T03:49:18.019Z,21.01
2022-08-05T03:52:50.200Z,20.99
2022-08-05T03:55:54.081Z,21.00
2022-08-05T03:57:45.527Z,20.82
2022-08-05T04:00:15.572Z,20.91
2022-08-05T04:02:57.846Z,20.99
2022-08-05T04:05:27.951Z,21.12
2022-08-05T04:08:05.554Z,21.14
2022-08-05T04:10:42.249Z,21.09
2022-08-05T04:13:09.275Z,21.09
2022-08-05T04:15:36.785Z,21.04
2022-08-05T04:18:07.397Z,21.14
2022-08-05T04:20:36.543Z,21.12
2022-08-05T04:23:03.669Z,21.08
2022-08-05T04:25:57.496Z,21.14
2022-08-05T04:28:17.956Z,21.30
2022-08-05T04:30:45.155Z,21.22
2022-08-05T04:33:12.543Z,21.30
2022-08-05T04:36:15.545Z,21.30
2022-08-05T04:38:39.538Z,21.54
2022-08-05T04:41:09.518Z,21.50
2022-08-05T04:43:37.351Z,21.66
2022-08-05T04:46:05.108Z,21.72
2022-08-05T04:48:32.285Z,21.91
2022-08-05T04:51:01.724Z,22.01
2022-08-05T04:53:33.606Z,22.07
2022-08-05T04:56:32.202Z,22.29
2022-08-05T04:58:49.850Z,22.43
2022-08-05T05:02:08.337Z,22.57
2022-08-05T05:04:03.815Z,22.68
2022-08-05T05:06:39.448Z,22.69
2022-08-05T05:09:14.272Z,22.76
2022-08-05T05:11:54.042Z,22.70
2022-08-05T05:14:28.023Z,22.75
2022-08-05T05:17:00.190Z,22.63
2022-08-05T05:19:36.598Z,22.79
2022-08-05T05:22:23.045Z,22.90
2022-08-05T05:24:57.634Z,23.02
2022-08-05T05:27:45.349Z,23.23
2022-08-05T05:30:29.316Z,23.40
2022-08-05T05:33:00.866Z,23.70
2022-08-05T05:35:34.153Z,24.00
2022-08-05T05:38:09.144Z,24.16
2022-08-05T05:40:39.301Z,24.49
2022-08-05T05:43:10.717Z,24.83
2022-08-05T05:45:37.518Z,25.26
2022-08-05T05:48:16.021Z,26.10
2022-08-05T05:50:44.228Z,26.77
2022-08-05T05:53:21.496Z,27.72
2022-08-05T05:55:51.769Z,28.42
2022-08-05T05:58:31.501Z,28.91
2022-08-05T06:01:13.409Z,29.18
2022-08-05T06:04:00.996Z,29.59
2022-08-05T06:06:31.107Z,30.16
2022-08-05T06:08:58.513Z,30.31
2022-08-05T06:11:25.273Z,30.02
2022-08-05T06:13:55.352Z,30.07
2022-08-05T06:16:28.928Z,30.52
2022-08-05T06:19:00.911Z,31.11
2022-08-05T06:21:36.505Z,31.48
2022-08-05T06:24:06.046Z,31.88
2022-08-05T06:26:35.084Z,32.19
2022-08-05T06:29:06.077Z,32.07
2022-08-05T06:31:33.590Z,32.60
2022-08-05T06:34:06.418Z,33.24
2022-08-05T06:36:56.647Z,33.86
2022-08-05T06:39:21.764Z,34.09
2022-08-05T06:41:49.634Z,34.52
2022-08-05T06:44:18.958Z,34.88
2022-08-05T06:46:50.807Z,34.88
2022-08-05T06:49:18.888Z,34.77
2022-08-05T06:51:48.084Z,34.07
2022-08-05T06:54:18.109Z,33.95
2022-08-05T06:56:54.693Z,33.59
2022-08-05T06:59:38.893Z,33.45
2022-08-05T07:02:09.255Z,33.91
2022-08-05T07:04:36.442Z,34.61
2022-08-05T07:07:03.420Z,35.34
2022-08-05T07:09:40.399Z,36.31
2022-08-05T07:12:07.897Z,36.47
2022-08-05T07:14:54.039Z,36.12
2022-08-05T07:17:58.408Z,36.14
2022-08-05T07:20:32.050Z,35.08
2022-08-05T07:22:55.401Z,34.00
2022-08-05T07:25:56.338Z,34.47
2022-08-05T07:28:11.619Z,35.90
2022-08-05T07:30:39.892Z,37.02
2022-08-05T07:33:16.190Z,38.13
2022-08-05T07:36:04.062Z,39.25
2022-08-05T07:38:35.346Z,39.98
2022-08-05T07:42:07.129Z,40.47
2022-08-05T07:43:58.353Z,41.14
2022-08-05T07:46:26.924Z,40.93
2022-08-05T07:49:01.615Z,40.82
2022-08-05T07:51:36.901Z,40.57
2022-08-05T07:54:08.412Z,40.13
2022-08-05T07:57:00.442Z,40.41
2022-08-05T07:59:38.638Z,40.85
2022-08-05T08:02:16.117Z,40.88
2022-08-05T08:04:45.052Z,41.21
2022-08-05T08:07:12.903Z,41.07
2022-08-05T08:09:39.626Z,41.13
2022-08-05T08:12:15.911Z,40.78
2022-08-05T08:14:48.139Z,40.48
2022-08-05T08:17:15.923Z,40.37
2022-08-05T08:20:22.956Z,40.16
2022-08-05T08:22:32.517Z,39.99
2022-08-05T08:25:03.246Z,40.06
2022-08-05T08:27:45.114Z,40.51
2022-08-05T08:30:29.414Z,40.69
2022-08-05T08:33:04.455Z,39.80
2022-08-05T08:35:35.149Z,38.75
2022-08-05T08:38:07.930Z,38.93
2022-08-05T08:40:35.857Z,39.41
2022-08-05T08:45:18.160Z,39.26
2022-08-05T08:45:52.945Z,39.39
2022-08-05T08:48:43.053Z,39.16
2022-08-05T08:52:01.957Z,38.23
2022-08-05T08:53:54.960Z,38.25
2022-08-05T08:56:23.664Z,38.61
2022-08-05T08:58:54.014Z,38.69
2022-08-05T09:01:21.339Z,38.31
2022-08-05T09:03:54.331Z,37.79
2022-08-05T09:06:24.297Z,37.43
2022-08-05T09:08:55.206Z,36.50
2022-08-05T09:11:51.499Z,35.68
2022-08-05T09:14:58.131Z,35.65
2022-08-05T09:16:55.847Z,34.66
2022-08-05T09:19:27.866Z,34.89
2022-08-05T09:22:22.997Z,36.32
2022-08-05T09:25:13.536Z,37.49
2022-08-05T09:28:04.669Z,38.33
2022-08-05T09:30:27.864Z,37.63
2022-08-05T09:33:01.184Z,36.34
2022-08-05T09:35:29.436Z,35.37
2022-08-05T09:38:16.459Z,34.60
2022-08-05T09:40:44.572Z,33.66
2022-08-05T09:43:49.386Z,32.58
2022-08-05T09:46:29.855Z,32.14
2022-08-05T09:49:08.273Z,32.09
2022-08-05T09:51:44.446Z,33.32
2022-08-05T09:54:16.345Z,33.87
2022-08-05T09:56:52.227Z,33.49
2022-08-05T09:59:23.894Z,33.52
2022-08-05T10:01:58.052Z,33.71
2022-08-05T10:04:35.380Z,33.80
2022-08-05T10:07:25.057Z,33.61
2022-08-05T10:10:04.412Z,33.31
2022-08-05T10:13:01.388Z,32.76
2022-08-05T10:15:35.656Z,32.54
2022-08-05T10:18:16.677Z,32.40
2022-08-05T10:20:47.787Z,32.62
2022-08-05T10:23:34.617Z,33.17
2022-08-05T10:26:13.957Z,33.54
2022-08-05T10:28:42.966Z,34.09
2022-08-05T10:32:54.070Z,35.28
2022-08-05T10:33:59.513Z,37.78
2022-08-05T10:36:27.565Z,37.21
2022-08-05T10:39:01.026Z,36.60
2022-08-05T10:41:47.383Z,36.03
2022-08-05T10:44:17.292Z,35.39
2022-08-05T10:46:46.058Z,35.30
2022-08-05T10:49:17.771Z,36.14
2022-08-05T10:52:00.255Z,36.75
2022-08-05T10:54:47.194Z,36.31
2022-08-05T10:57:29.386Z,35.14
2022-08-05T11:00:17.883Z,34.26
2022-08-05T11:03:23.300Z,33.54
2022-08-05T11:06:20.076Z,32.70
2022-08-05T11:09:05.784Z,32.14
2022-08-05T11:11:44.759Z,31.70
2022-08-05T11:14:42.843Z,31.33
2022-08-05T11:17:59.859Z,30.94
2022-08-05T11:20:32.823Z,30.73
2022-08-05T11:23:05.952Z,30.44
2022-08-05T11:26:05.015Z,30.08
2022-08-05T11:28:36.052Z,30.05
2022-08-05T11:31:06.209Z,30.29
2022-08-05T11:33:46.442Z,29.52
2022-08-05T11:36:34.440Z,29.47
2022-08-05T11:39:06.568Z,29.30
2022-08-05T11:42:01.264Z,29.37
2022-08-05T11:44:40.293Z,29.65
2022-08-05T11:47:15.177Z,29.56
2022-08-05T11:49:57.628Z,29.26
2022-08-05T11:52:29.316Z,29.16
2022-08-05T11:54:57.535Z,28.97
2022-08-05T11:58:08.222Z,28.60
2022-08-05T12:00:29.113Z,28.08
2022-08-05T12:02:57.307Z,27.70
2022-08-05T12:05:32.291Z,27.46
2022-08-05T12:08:09.693Z,27.23
2022-08-05T12:10:45.074Z,26.92
2022-08-05T12:13:18.824Z,26.58
2022-08-05T12:16:05.365Z,26.25
2022-08-05T12:18:42.628Z,26.07
2022-08-05T12:21:17.728Z,25.89
2022-08-05T12:23:53.359Z,25.73
2022-08-05T12:26:20.545Z,25.73
2022-08-05T12:28:50.020Z,25.45
2022-08-05T12:31:23.321Z,25.29
2022-08-05T12:34:01.404Z,25.14
2022-08-05T12:36:30.417Z,25.33
2022-08-05T12:38:59.002Z,25.53
2022-08-05T12:41:34.368Z,26.07
2022-08-05T12:44:06.175Z,26.75
2022-08-05T12:46:39.677Z,27.46
2022-08-05T12:49:13.560Z,27.81
2022-08-05T12:52:12.955Z,28.27
2022-08-05T12:54:32.533Z,28.27
2022-08-05T12:57:01.139Z,28.31
2022-08-05T13:00:08.666Z,28.18
2022-08-05T13:02:30.338Z,28.18
2022-08-05T13:04:57.430Z,28.39
2022-08-05T13:07:56.163Z,28.30
2022-08-05T13:10:19.621Z,28.29
2022-08-05T13:12:57.128Z,28.44
2022-08-05T13:15:41.414Z,28.65
2022-08-05T13:18:18.865Z,28.98
2022-08-05T13:20:47.042Z,28.90
2022-08-05T13:23:13.798Z,28.91
2022-08-05T13:25:52.343Z,29.18
2022-08-05T13:28:27.267Z,29.73
2022-08-05T13:30:54.285Z,30.19
2022-08-05T13:34:22.452Z,30.43
2022-08-05T13:36:09.591Z,30.39
2022-08-05T13:38:42.443Z,30.57
2022-08-05T13:41:13.083Z,30.81
2022-08-05T13:43:44.613Z,30.85
2022-08-05T13:46:13.957Z,30.82
2022-08-05T13:48:57.601Z,30.74
2022-08-05T13:51:27.643Z,30.67
2022-08-05T13:53:56.455Z,30.54
2022-08-05T13:56:25.304Z,30.57
2022-08-05T13:58:53.261Z,30.49
2022-08-05T14:01:23.678Z,30.51
2022-08-05T14:04:13.343Z,30.45
2022-08-05T14:06:40.110Z,30.47
2022-08-05T14:09:14.906Z,30.41
2022-08-05T14:12:00.670Z,30.34
2022-08-05T14:14:33.687Z,30.23
2022-08-05T14:17:00.793Z,30.10
2022-08-05T14:19:27.592Z,30.11
2022-08-05T14:22:09.926Z,30.05
2022-08-05T14:24:40.134Z,30.03
2022-08-05T14:27:18.270Z,30.10
2022-08-05T14:29:45.556Z,30.18
2022-08-05T14:32:26.827Z,30.11
2022-08-05T14:34:54.628Z,29.99
2022-08-05T14:37:24.309Z,29.98
2022-08-05T14:40:13.991Z,29.92
2022-08-05T14:42:43.675Z,29.99
2022-08-05T14:45:10.591Z,30.06
2022-08-05T14:48:03.700Z,29.97
2022-08-05T14:50:25.346Z,30.11
2022-08-05T14:52:58.318Z,30.17
2022-08-05T14:55:38.759Z,30.60
2022-08-05T14:58:11.372Z,31.08
2022-08-05T15:00:59.651Z,31.32
2022-08-05T15:03:33.286Z,31.41
2022-08-05T15:06:07.720Z,31.35
2022-08-05T15:08:59.375Z,31.06
2022-08-05T15:11:52.509Z,30.80
2022-08-05T15:14:20.159Z,30.70
2022-08-05T15:17:02.113Z,30.39
2022-08-05T15:19:31.201Z,30.07
2022-08-05T15:22:00.299Z,29.92
2022-08-05T15:24:28.468Z,29.65
2022-08-05T15:26:55.929Z,29.42
2022-08-05T15:29:29.708Z,29.34
2022-08-05T15:32:03.352Z,29.33
2022-08-05T15:34:33.886Z,29.39
2022-08-05T15:37:06.117Z,29.07
2022-08-05T15:40:59.707Z,29.03
2022-08-05T15:42:56.706Z,28.98
2022-08-05T15:45:10.517Z,28.67
2022-08-05T15:47:38.175Z,28.31
2022-08-05T15:50:05.983Z,28.15
2022-08-05T15:52:53.807Z,28.03
2022-08-05T15:55:25.034Z,27.94
2022-08-05T15:58:08.499Z,27.87
2022-08-05T16:01:04.146Z,27.76
2022-08-05T16:03:23.615Z,27.70
2022-08-05T16:05:52.801Z,27.71
2022-08-05T16:08:22.700Z,27.59
2022-08-05T16:10:50.987Z,27.46
2022-08-05T16:13:23.709Z,27.22
2022-08-05T16:15:58.934Z,27.14
2022-08-05T16:18:28.948Z,27.12
2022-08-05T16:20:56.046Z,27.03
2022-08-05T16:23:23.063Z,26.92
2022-08-05T16:25:53.283Z,26.86
2022-08-05T16:28:24.154Z,26.78
2022-08-05T16:30:52.194Z,26.74
2022-08-05T16:33:19.631Z,26.65
2022-08-05T16:35:52.477Z,26.45
2022-08-05T16:38:25.655Z,26.42
2022-08-05T16:41:00.252Z,26.37
2022-08-05T16:43:30.286Z,26.40
2022-08-05T16:46:03.477Z,26.33
2022-08-05T16:48:37.809Z,26.34
2022-08-05T16:51:09.870Z,26.28
2022-08-05T16:54:03.852Z,26.16
2022-08-05T16:56:25.713Z,26.10
2022-08-05T16:58:52.752Z,26.02
2022-08-05T17:01:20.284Z,25.92
2022-08-05T17:03:47.535Z,25.83
2022-08-05T17:06:16.359Z,25.80
2022-08-05T17:08:52.750Z,25.75
2022-08-05T17:11:23.774Z,25.66
2022-08-05T17:14:00.293Z,25.44
2022-08-05T17:16:36.368Z,25.46
2022-08-05T17:19:07.420Z,25.29
2022-08-05T17:21:37.325Z,25.07
2022-08-05T17:24:14.345Z,24.95
2022-08-05T17:26:52.701Z,24.86
2022-08-05T17:29:22.261Z,24.54
2022-08-05T17:31:56.790Z,24.47
2022-08-05T17:34:29.990Z,24.62
2022-08-05T17:36:59.069Z,24.38
2022-08-05T17:39:34.403Z,24.45
2022-08-05T17:42:20.155Z,24.44
2022-08-05T17:44:51.911Z,24.40
2022-08-05T17:47:22.509Z,24.43
2022-08-05T17:50:00.540Z,24.36
2022-08-05T17:52:32.152Z,24.18
2022-08-05T17:54:59.115Z,24.21
2022-08-05T17:57:25.856Z,24.20
2022-08-05T18:00:03.665Z,23.83
2022-08-05T18:02:34.241Z,23.90
2022-08-05T18:05:06.427Z,23.84
2022-08-05T18:07:41.399Z,23.73
2022-08-05T18:10:10.789Z,23.56
2022-08-05T18:12:38.369Z,23.52
2022-08-05T18:15:05.464Z,23.32
2022-08-05T18:18:01.699Z,23.24
2022-08-05T18:20:29.638Z,22.99
2022-08-05T18:23:04.868Z,22.54
2022-08-05T18:25:38.774Z,22.24
2022-08-05T18:28:06.847Z,22.24
2022-08-05T18:30:34.158Z,21.95
2022-08-05T18:33:01.486Z,21.75
2022-08-05T18:36:00.584Z,21.60
2022-08-05T18:38:19.336Z,21.19
2022-08-05T18:41:57.398Z,20.82
2022-08-05T18:43:42.964Z,20.76
2022-08-05T18:46:19.955Z,20.76
2022-08-05T18:48:51.833Z,20.67
2022-08-05T18:52:02.758Z,20.66
2022-08-05T18:54:28.372Z,20.44
2022-08-05T18:57:01.077Z,20.28
2022-08-05T18:59:43.728Z,20.25
2022-08-05T19:02:36.611Z,20.08
2022-08-05T19:06:06.103Z,20.18
2022-08-05T19:07:52.989Z,20.17
2022-08-05T19:10:27.990Z,20.38
2022-08-05T19:12:55.371Z,20.10
2022-08-05T19:15:58.228Z,20.23
2022-08-05T19:18:13.627Z,19.96
2022-08-05T19:20:52.265Z,19.93
2022-08-05T19:24:03.825Z,19.87
2022-08-05T19:26:08.481Z,19.52
2022-08-05T19:28:38.026Z,19.64
2022-08-05T19:31:08.387Z,19.76
2022-08-05T19:33:36.802Z,19.71
2022-08-05T19:36:06.251Z,19.57
2022-08-05T19:38:35.962Z,19.57
2022-08-05T19:41:06.981Z,19.69
2022-08-05T19:44:05.777Z,19.78
2022-08-05T19:46:30.278Z,19.78
2022-08-05T19:49:01.285Z,19.67
2022-08-05T19:52:05.155Z,19.69
2022-08-05T19:54:26.955Z,19.73
2022-08-05T19:56:59.487Z,19.75
2022-08-05T19:59:59.428Z,19.77
2022-08-05T20:02:17.598Z,19.70
2022-08-05T20:04:50.869Z,19.70
2022-08-05T20:07:38.916Z,19.34
2022-08-05T20:10:13.118Z,19.40
2022-08-05T20:12:46.028Z,19.49
2022-08-05T20:15:48.302Z,19.48
2022-08-05T20:18:09.792Z,19.45
2022-08-05T20:20:51.536Z,19.55
2022-08-05T20:23:22.252Z,19.63
2022-08-05T20:25:49.182Z,19.63
2022-08-05T20:28:19.289Z,19.63
